Time;durP1;ratioP1;P1;durP2;ratioP2;P2;SDS_P1;SDS_P2;PMS_P1;PMS_P2;Temp;Humidity;BMP_temperature;BMP_pressure;BME280_temperature;BME280_humidity;BME280_pressure;Samples;Min_cycle;Max_cycle;Signal;HPM_P1;HPM_P2
2023/08/08 00:00:14;;;;;;;2.03;1.83;;;14.30;99.90;;;;;;5093976;28;20552;-69
2023/08/08 00:02:40;;;;;;;3.03;1.73;;;14.30;99.90;;;;;;5094268;28;20181;-69
2023/08/08 00:05:06;;;;;;;3.30;1.70;;;14.30;99.90;;;;;;5093703;28;20170;-69
2023/08/08 00:07:31;;;;;;;1.93;1.60;;;14.30;99.90;;;;;;5093946;28;20181;-69
2023/08/08 00:09:57;;;;;;;2.00;1.83;;;14.30;99.90;;;;;;5075459;28;20205;-70
2023/08/08 00:12:23;;;;;;;2.80;1.53;;;14.20;99.90;;;;;;5071713;28;20608;-69
2023/08/08 00:14:48;;;;;;;4.07;1.90;;;14.20;99.90;;;;;;5083868;28;20169;-69
2023/08/08 00:17:14;;;;;;;7.33;2.30;;;14.10;99.90;;;;;;5107734;28;20251;-69
2023/08/08 00:19:40;;;;;;;3.00;1.90;;;14.10;99.90;;;;;;5113887;28;20168;-69
2023/08/08 00:22:06;;;;;;;2.67;1.80;;;14.00;99.90;;;;;;5095679;28;20263;-69
2023/08/08 00:24:31;;;;;;;3.63;2.10;;;14.00;99.90;;;;;;5113808;28;20742;-69
2023/08/08 00:26:57;;;;;;;11.53;2.13;;;14.00;99.90;;;;;;5095181;28;20528;-69
2023/08/08 00:29:23;;;;;;;2.00;1.50;;;13.90;99.90;;;;;;5106413;28;20184;-69
2023/08/08 00:31:48;;;;;;;3.13;2.10;;;13.80;99.90;;;;;;5085744;28;20570;-69
2023/08/08 00:34:14;;;;;;;2.20;2.00;;;13.80;99.90;;;;;;5098586;28;20226;-69
2023/08/08 00:36:39;;;;;;;3.00;2.80;;;13.80;99.90;;;;;;5113146;28;20658;-69
2023/08/08 00:39:05;;;;;;;1.90;1.80;;;13.80;99.90;;;;;;5113461;28;20191;-69
2023/08/08 00:41:30;;;;;;;1.80;1.70;;;13.80;99.90;;;;;;5113219;28;20183;-69
2023/08/08 00:43:56;;;;;;;7.43;1.73;;;13.80;99.90;;;;;;5113266;28;20164;-69
2023/08/08 00:46:24;;;;;;;2.17;1.97;;;13.70;99.90;;;;;;5100794;28;20657;-69
2023/08/08 00:48:50;;;;;;;3.37;2.00;;;13.70;99.90;;;;;;5092820;28;20174;-69
2023/08/08 00:51:17;;;;;;;3.53;2.03;;;13.70;99.90;;;;;;5092762;28;20423;-69
2023/08/08 00:53:43;;;;;;;3.50;2.10;;;13.70;99.90;;;;;;5093314;28;20400;-69
2023/08/08 00:56:11;;;;;;;1.93;1.73;;;13.60;99.90;;;;;;5092475;28;20470;-69
2023/08/08 00:58:36;;;;;;;2.10;1.80;;;13.60;99.90;;;;;;5092631;28;20392;-69
2023/08/08 01:01:03;;;;;;;8.40;1.90;;;13.70;99.90;;;;;;5085798;28;20478;-69
2023/08/08 01:03:29;;;;;;;2.30;1.90;;;13.70;99.90;;;;;;5100121;28;20161;-69
2023/08/08 01:06:03;;;;;;;1.90;1.60;;;13.70;99.90;;;;;;5112762;28;20500;-69
2023/08/08 01:08:39;;;;;;;3.23;1.70;;;13.70;99.90;;;;;;5112989;28;20935;-69
2023/08/08 01:11:05;;;;;;;4.10;1.77;;;13.70;99.90;;;;;;5113030;28;20426;-69
2023/08/08 01:13:32;;;;;;;5.63;2.30;;;13.60;99.90;;;;;;5112938;28;20911;-69
2023/08/08 01:15:59;;;;;;;1.90;1.80;;;13.60;99.90;;;;;;5112550;28;20491;-69
2023/08/08 01:18:25;;;;;;;3.00;1.83;;;13.60;99.90;;;;;;5088270;28;20423;-69
2023/08/08 01:20:52;;;;;;;2.10;1.50;;;13.60;99.90;;;;;;5074696;28;20913;-69
2023/08/08 01:23:51;;;;;;;1.90;1.80;;;13.60;99.90;;;;;;5091576;28;20424;-69
2023/08/08 01:26:18;;;;;;;2.10;1.90;;;13.60;99.90;;;;;;5092403;28;20408;-69
2023/08/08 01:28:44;;;;;;;4.83;2.40;;;13.50;99.90;;;;;;5074440;28;20407;-69
2023/08/08 01:31:10;;;;;;;2.50;1.87;;;13.50;99.90;;;;;;5092259;28;20426;-69
2023/08/08 01:33:36;;;;;;;3.30;2.03;;;13.50;99.90;;;;;;5083051;28;20212;-69
2023/08/08 01:36:24;;;;;;;3.60;2.50;;;13.50;99.90;;;;;;5073482;28;20446;-69
2023/08/08 01:38:52;;;;;;;4.30;2.63;;;13.50;99.90;;;;;;5092140;28;20399;-69
2023/08/08 01:41:18;;;;;;;2.77;2.40;;;13.50;99.90;;;;;;5092060;28;20872;-69
2023/08/08 01:43:45;;;;;;;2.37;1.90;;;13.50;99.90;;;;;;5092102;28;20427;-69
2023/08/08 01:46:11;;;;;;;3.60;2.47;;;13.50;99.90;;;;;;5091138;28;20423;-69
2023/08/08 01:48:37;;;;;;;2.17;1.87;;;13.60;99.90;;;;;;5092404;28;20404;-69
2023/08/08 01:51:02;;;;;;;2.33;2.13;;;13.50;99.90;;;;;;5112664;28;20557;-69
2023/08/08 01:53:28;;;;;;;2.30;1.90;;;13.50;99.90;;;;;;5089914;28;20185;-69
2023/08/08 01:55:54;;;;;;;4.33;2.37;;;13.50;99.90;;;;;;5111273;28;20604;-69
2023/08/08 01:58:19;;;;;;;2.90;1.73;;;13.50;99.90;;;;;;5112323;28;20164;-69
2023/08/08 02:00:46;;;;;;;3.07;2.40;;;13.40;99.90;;;;;;5112203;28;20711;-69
2023/08/08 02:03:12;;;;;;;2.30;2.00;;;13.50;99.90;;;;;;5092932;28;20173;-69
2023/08/08 02:05:37;;;;;;;3.03;2.00;;;13.50;99.90;;;;;;5088882;28;20416;-69
2023/08/08 02:08:03;;;;;;;2.00;1.80;;;13.50;99.90;;;;;;5073880;28;20643;-69
2023/08/08 02:10:29;;;;;;;4.50;2.13;;;13.40;99.90;;;;;;5091727;28;20599;-69
2023/08/08 02:12:54;;;;;;;4.40;2.00;;;13.40;99.90;;;;;;5091899;28;20529;-69
2023/08/08 02:15:20;;;;;;;5.60;2.10;;;13.40;99.90;;;;;;5073464;28;20193;-69
2023/08/08 02:17:46;;;;;;;4.50;1.97;;;13.40;99.90;;;;;;5091779;28;20162;-69
2023/08/08 02:20:13;;;;;;;1.70;1.60;;;13.40;99.90;;;;;;5084785;28;20236;-69
2023/08/08 02:22:38;;;;;;;5.97;2.30;;;13.30;99.90;;;;;;5082981;28;20821;-69
2023/08/08 02:25:04;;;;;;;6.90;2.13;;;13.30;99.90;;;;;;5093696;28;20820;-69
2023/08/08 02:27:30;;;;;;;4.63;1.90;;;13.30;99.90;;;;;;5112181;28;20177;-69
2023/08/08 02:29:57;;;;;;;4.00;2.27;;;13.30;99.90;;;;;;5094120;28;20538;-69
2023/08/08 02:32:23;;;;;;;2.93;2.10;;;13.30;99.90;;;;;;5112036;28;20164;-69
2023/08/08 02:34:48;;;;;;;2.97;2.30;;;13.30;99.90;;;;;;5096446;28;20774;-69
2023/08/08 02:37:14;;;;;;;6.43;2.20;;;13.30;99.90;;;;;;5097074;28;20451;-69
2023/08/08 02:39:39;;;;;;;1.87;1.77;;;13.30;99.90;;;;;;5095480;28;20181;-69
2023/08/08 02:42:05;;;;;;;2.47;1.97;;;13.30;99.90;;;;;;5095695;28;20196;-69
2023/08/08 02:44:31;;;;;;;2.30;2.10;;;13.30;99.90;;;;;;5095536;28;20210;-69
2023/08/08 02:46:56;;;;;;;4.30;2.20;;;13.30;99.90;;;;;;5095114;28;20174;-69
2023/08/08 02:49:22;;;;;;;5.60;2.20;;;13.30;99.90;;;;;;5095127;28;20201;-69
2023/08/08 02:51:47;;;;;;;2.90;2.70;;;13.30;99.90;;;;;;5095447;28;20197;-69
2023/08/08 02:54:13;;;;;;;1.70;1.50;;;13.30;99.90;;;;;;5087852;28;20177;-69
2023/08/08 02:56:38;;;;;;;4.80;2.23;;;13.30;99.90;;;;;;5099330;28;20229;-69
2023/08/08 02:59:04;;;;;;;2.97;1.77;;;13.40;99.90;;;;;;5107689;28;20192;-69
2023/08/08 03:01:29;;;;;;;3.20;2.30;;;13.30;99.90;;;;;;5112096;28;20541;-70
2023/08/08 03:03:55;;;;;;;5.40;3.10;;;13.30;99.90;;;;;;5094460;28;20174;-69
2023/08/08 03:06:20;;;;;;;4.00;2.10;;;13.20;99.90;;;;;;5076831;28;20231;-69
2023/08/08 03:08:46;;;;;;;4.27;1.70;;;13.20;99.90;;;;;;5091860;28;20186;-69
2023/08/08 03:11:11;;;;;;;4.83;2.10;;;13.20;99.90;;;;;;5080213;28;20272;-69
2023/08/08 03:13:37;;;;;;;3.30;1.70;;;13.20;99.90;;;;;;5092414;28;20185;-69
2023/08/08 03:16:03;;;;;;;3.57;2.47;;;13.20;99.90;;;;;;5094571;28;20205;-69
2023/08/08 03:18:29;;;;;;;2.90;1.53;;;13.20;99.90;;;;;;5076662;28;20173;-69
2023/08/08 03:20:54;;;;;;;10.10;2.20;;;13.20;99.90;;;;;;5095033;28;20428;-69
2023/08/08 03:23:20;;;;;;;2.60;2.03;;;13.20;99.90;;;;;;5095081;28;20257;-69
2023/08/08 03:25:45;;;;;;;1.97;1.57;;;13.20;99.90;;;;;;5088581;28;20178;-69
2023/08/08 03:28:11;;;;;;;3.63;1.60;;;13.20;99.90;;;;;;5077784;28;20186;-69
2023/08/08 03:30:37;;;;;;;2.63;1.30;;;13.20;99.90;;;;;;5065008;28;20189;-70
2023/08/08 03:33:03;;;;;;;3.57;2.30;;;13.20;99.90;;;;;;5094526;28;20586;-69
2023/08/08 03:35:29;;;;;;;2.20;1.70;;;13.20;99.90;;;;;;5076265;28;20455;-69
2023/08/08 03:37:54;;;;;;;4.27;1.90;;;13.20;99.90;;;;;;5094721;28;20993;-69
2023/08/08 03:40:20;;;;;;;6.40;2.27;;;13.20;99.90;;;;;;5076158;28;20300;-69
2023/08/08 03:42:45;;;;;;;2.80;2.03;;;13.20;99.90;;;;;;5092245;28;20182;-69
2023/08/08 03:45:11;;;;;;;4.43;2.40;;;13.20;99.90;;;;;;5093463;28;20169;-69
2023/08/08 03:47:37;;;;;;;3.73;2.03;;;13.20;99.90;;;;;;5094596;28;20181;-69
2023/08/08 03:50:04;;;;;;;8.60;2.17;;;13.20;99.90;;;;;;5094548;28;20189;-69
2023/08/08 03:52:30;;;;;;;2.53;1.63;;;13.20;99.90;;;;;;5094197;28;20162;-69
2023/08/08 03:54:55;;;;;;;1.70;1.60;;;13.20;99.90;;;;;;5094267;28;20452;-69
2023/08/08 03:57:21;;;;;;;2.37;1.90;;;13.10;99.90;;;;;;5094210;28;20673;-69
2023/08/08 03:59:46;;;;;;;4.17;2.00;;;13.20;99.90;;;;;;5066553;28;20171;-69
2023/08/08 04:02:12;;;;;;;1.87;1.67;;;13.20;99.90;;;;;;5092543;28;20177;-69
2023/08/08 04:04:38;;;;;;;5.43;2.00;;;13.10;99.90;;;;;;5093885;28;20253;-69
2023/08/08 04:07:04;;;;;;;6.13;2.70;;;13.10;99.90;;;;;;5093863;28;20188;-69
2023/08/08 04:09:29;;;;;;;15.97;3.70;;;13.10;99.90;;;;;;5075802;28;21114;-69
2023/08/08 04:11:55;;;;;;;7.70;2.07;;;13.10;99.90;;;;;;5076060;28;20203;-69
2023/08/08 04:14:21;;;;;;;5.67;2.50;;;13.10;99.90;;;;;;5076492;28;20187;-69
2023/08/08 04:16:46;;;;;;;2.23;1.90;;;13.10;99.90;;;;;;5078896;28;20197;-69
2023/08/08 04:19:12;;;;;;;3.37;2.20;;;13.10;99.90;;;;;;5098896;28;20677;-69
2023/08/08 04:21:37;;;;;;;2.33;1.77;;;13.10;99.90;;;;;;5095597;28;20275;-69
2023/08/08 04:24:03;;;;;;;2.30;1.90;;;13.10;99.90;;;;;;5095857;28;20511;-69
2023/08/08 04:26:28;;;;;;;5.33;1.97;;;13.10;99.90;;;;;;5113812;28;20176;-69
2023/08/08 04:28:55;;;;;;;3.17;2.10;;;13.10;99.90;;;;;;5114234;28;20165;-69
2023/08/08 04:31:23;;;;;;;3.87;2.23;;;13.20;99.90;;;;;;5090540;28;20918;-69
2023/08/08 04:33:48;;;;;;;4.40;1.93;;;13.10;99.90;;;;;;5093811;28;20423;-69
2023/08/08 04:36:14;;;;;;;3.57;2.37;;;13.20;99.90;;;;;;5094352;28;20944;-69
2023/08/08 04:38:40;;;;;;;2.33;2.13;;;13.20;99.90;;;;;;5093746;28;20161;-70
2023/08/08 04:41:05;;;;;;;4.93;2.37;;;13.20;99.90;;;;;;5093836;28;20193;-69
2023/08/08 04:43:30;;;;;;;3.63;2.20;;;13.20;99.90;;;;;;5093952;28;20173;-69
2023/08/08 04:45:56;;;;;;;6.10;2.87;;;13.20;99.90;;;;;;5074695;28;20693;-69
2023/08/08 04:48:21;;;;;;;6.53;2.40;;;13.30;99.90;;;;;;5091778;28;20181;-69
2023/08/08 04:50:47;;;;;;;3.70;3.03;;;13.30;99.90;;;;;;5093680;28;20209;-69
2023/08/08 04:53:13;;;;;;;4.43;2.57;;;13.40;99.90;;;;;;5093558;28;20204;-69
2023/08/08 04:55:39;;;;;;;3.53;2.37;;;13.40;99.90;;;;;;5092857;28;20531;-69
2023/08/08 04:58:05;;;;;;;7.77;2.43;;;13.40;99.90;;;;;;5092555;28;20536;-70
2023/08/08 05:00:30;;;;;;;5.70;3.03;;;13.50;99.90;;;;;;5093277;28;20411;-69
2023/08/08 05:02:56;;;;;;;5.23;3.00;;;13.60;99.90;;;;;;5092866;28;20166;-70
2023/08/08 05:05:21;;;;;;;4.03;2.80;;;13.70;99.90;;;;;;5085265;28;20178;-70
2023/08/08 05:07:47;;;;;;;7.53;2.17;;;13.90;99.90;;;;;;5090704;28;20189;-70
2023/08/08 05:10:12;;;;;;;4.73;2.77;;;14.00;99.90;;;;;;5074214;28;20189;-69
2023/08/08 05:12:39;;;;;;;3.73;2.70;;;14.10;99.90;;;;;;5092430;28;20685;-69
2023/08/08 05:15:05;;;;;;;6.20;3.53;;;14.30;99.90;;;;;;5093106;28;20190;-70
2023/08/08 05:17:34;;;;;;;7.97;2.90;;;14.30;99.90;;;;;;5093290;28;20780;-69
2023/08/08 05:19:59;;;;;;;3.30;2.60;;;14.40;99.90;;;;;;5074369;28;20415;-70
2023/08/08 05:22:26;;;;;;;7.90;2.50;;;14.50;99.90;;;;;;5072940;28;20423;-69
2023/08/08 05:24:51;;;;;;;6.27;3.40;;;14.60;99.90;;;;;;5101599;28;20177;-69
2023/08/08 05:27:17;;;;;;;7.90;3.00;;;14.70;99.90;;;;;;5092186;28;20434;-69
2023/08/08 05:29:42;;;;;;;2.70;2.37;;;14.80;99.90;;;;;;5093922;28;20622;-70
2023/08/08 05:32:08;;;;;;;5.00;2.50;;;14.90;99.90;;;;;;5093064;28;20246;-69
2023/08/08 05:34:36;;;;;;;7.17;3.77;;;15.00;99.90;;;;;;5092169;28;20262;-69
2023/08/08 05:37:03;;;;;;;5.47;3.00;;;15.20;99.90;;;;;;5090599;28;20596;-69
2023/08/08 05:39:29;;;;;;;9.70;3.00;;;15.30;99.90;;;;;;5069334;28;20431;-69
2023/08/08 05:41:55;;;;;;;2.37;2.17;;;15.40;99.90;;;;;;5092617;28;20431;-69
2023/08/08 05:44:20;;;;;;;9.33;3.23;;;15.40;99.90;;;;;;5093037;28;20823;-70
2023/08/08 05:46:46;;;;;;;10.90;3.93;;;15.40;99.90;;;;;;5092999;28;20202;-70
2023/08/08 05:49:11;;;;;;;5.67;3.10;;;15.40;99.90;;;;;;5092803;28;20172;-69
2023/08/08 05:51:37;;;;;;;19.93;2.90;;;15.50;99.90;;;;;;5093012;28;20200;-70
2023/08/08 05:54:02;;;;;;;6.97;3.33;;;15.60;99.90;;;;;;5091730;28;20690;-70
2023/08/08 05:56:36;;;;;;;5.20;2.77;;;15.70;99.90;;;;;;5108352;28;20240;-70
2023/08/08 05:59:01;;;;;;;6.30;2.93;;;15.90;99.90;;;;;;5113276;28;20157;-69
2023/08/08 06:01:27;;;;;;;5.70;2.63;;;16.00;99.90;;;;;;5095050;28;20555;-70
2023/08/08 06:03:52;;;;;;;4.47;2.77;;;16.30;99.90;;;;;;5095328;28;20164;-70
2023/08/08 06:06:18;;;;;;;3.00;2.63;;;16.70;99.90;;;;;;5112834;28;20719;-70
2023/08/08 06:08:44;;;;;;;7.50;2.70;;;17.30;99.90;;;;;;5095088;28;20272;-69
2023/08/08 06:11:09;;;;;;;2.33;2.07;;;17.70;99.90;;;;;;5091085;28;20196;-67
2023/08/08 06:13:36;;;;;;;3.80;2.23;;;18.20;99.90;;;;;;5098027;28;20599;-69
2023/08/08 06:16:06;;;;;;;6.97;2.43;;;18.60;99.90;;;;;;5116027;28;20196;-69
2023/08/08 06:18:35;;;;;;;5.27;2.73;;;19.00;99.90;;;;;;5116197;28;20428;-69
2023/08/08 06:21:01;;;;;;;6.57;1.93;;;19.60;99.90;;;;;;5092753;28;20978;-68
2023/08/08 06:23:26;;;;;;;6.70;1.67;;;20.20;99.90;;;;;;5091232;28;20404;-68
2023/08/08 06:25:52;;;;;;;1.83;1.73;;;20.60;99.90;;;;;;5096792;28;20175;-69
2023/08/08 06:28:17;;;;;;;6.37;2.37;;;20.80;99.90;;;;;;5117032;28;20615;-69
2023/08/08 06:30:43;;;;;;;4.27;2.23;;;21.20;99.90;;;;;;5116773;28;20271;-69
2023/08/08 06:33:08;;;;;;;3.30;2.03;;;21.50;99.90;;;;;;5116947;28;20176;-69
2023/08/08 06:35:34;;;;;;;7.80;3.07;;;22.00;99.90;;;;;;5086526;28;20205;-69
2023/08/08 06:38:00;;;;;;;6.50;2.37;;;22.40;99.90;;;;;;5098789;28;20165;-69
2023/08/08 06:40:25;;;;;;;4.23;2.10;;;22.60;99.90;;;;;;5115623;28;20222;-68
2023/08/08 06:42:51;;;;;;;3.23;2.13;;;23.30;99.90;;;;;;5115629;28;20585;-69
2023/08/08 06:45:16;;;;;;;6.70;2.70;;;23.50;99.90;;;;;;5096933;28;20223;-69
2023/08/08 06:47:42;;;;;;;8.07;2.03;;;23.80;99.90;;;;;;5115575;28;20634;-69
2023/08/08 06:50:08;;;;;;;3.00;2.00;;;24.60;99.90;;;;;;5105252;28;20196;-69
2023/08/08 06:52:34;;;;;;;8.47;2.13;;;25.10;94.60;;;;;;5103244;28;20160;-69
2023/08/08 06:54:59;;;;;;;4.50;2.57;;;25.20;91.40;;;;;;5115172;28;20919;-69
2023/08/08 06:57:24;;;;;;;3.40;2.27;;;25.80;90.20;;;;;;5096989;28;20208;-69
2023/08/08 06:59:52;;;;;;;3.80;2.20;;;25.90;84.80;;;;;;5115371;28;20193;-70
2023/08/08 07:02:20;;;;;;;5.40;2.10;;;26.40;80.20;;;;;;5115424;28;20157;-69
2023/08/08 07:04:45;;;;;;;5.13;2.77;;;26.90;77.40;;;;;;5099661;28;21018;-69
2023/08/08 07:07:11;;;;;;;3.50;2.17;;;27.40;69.70;;;;;;5099650;28;20422;-69
2023/08/08 07:09:37;;;;;;;3.70;1.97;;;27.70;71.30;;;;;;5115179;28;20161;-69
2023/08/08 07:12:03;;;;;;;6.97;2.10;;;27.50;66.30;;;;;;5114989;28;20230;-69
2023/08/08 07:14:29;;;;;;;7.20;2.30;;;27.40;64.60;;;;;;5096783;28;20414;-70
2023/08/08 07:16:55;;;;;;;3.60;2.40;;;26.90;64.20;;;;;;5114940;28;20954;-70
2023/08/08 07:19:21;;;;;;;5.37;2.07;;;26.80;65.70;;;;;;5094570;28;20174;-69
2023/08/08 07:21:47;;;;;;;4.37;2.17;;;26.50;66.30;;;;;;5084375;28;20769;-70
2023/08/08 07:24:12;;;;;;;4.20;2.20;;;26.20;66.60;;;;;;5094339;28;20189;-69
2023/08/08 07:26:38;;;;;;;5.47;2.30;;;25.30;68.10;;;;;;5094013;28;20218;-70
2023/08/08 07:29:05;;;;;;;6.33;2.40;;;24.90;72.90;;;;;;5094363;28;20165;-69
2023/08/08 07:31:31;;;;;;;4.50;2.17;;;24.10;74.70;;;;;;5076096;28;20196;-69
2023/08/08 07:33:57;;;;;;;3.73;2.20;;;23.40;79.70;;;;;;5080480;28;20435;-69
2023/08/08 07:36:22;;;;;;;5.57;2.67;;;22.80;87.50;;;;;;5093747;28;20193;-69
2023/08/08 07:38:48;;;;;;;4.00;2.30;;;22.40;94.30;;;;;;5094152;28;20685;-68
2023/08/08 07:41:13;;;;;;;3.60;2.17;;;22.00;99.90;;;;;;5093985;28;20260;-69
2023/08/08 07:43:39;;;;;;;3.60;2.10;;;21.90;99.90;;;;;;5094010;28;20244;-69
2023/08/08 07:46:04;;;;;;;3.60;2.07;;;22.30;99.90;;;;;;5090586;28;20181;-69
2023/08/08 07:48:30;;;;;;;4.03;2.70;;;22.80;99.90;;;;;;5071998;28;20197;-69
2023/08/08 07:50:56;;;;;;;5.13;2.60;;;23.20;99.90;;;;;;5093738;28;20194;-70
2023/08/08 07:53:21;;;;;;;3.97;2.80;;;23.20;99.90;;;;;;5093936;28;20634;-70
2023/08/08 07:55:47;;;;;;;2.90;2.43;;;23.60;99.90;;;;;;5075355;28;20193;-70
2023/08/08 07:58:12;;;;;;;10.70;2.40;;;24.00;99.90;;;;;;5093845;28;20158;-69
2023/08/08 08:00:38;;;;;;;4.67;3.00;;;23.80;96.60;;;;;;5089713;28;20248;-68
2023/08/08 08:03:04;;;;;;;4.53;2.90;;;23.50;99.10;;;;;;5097779;28;20217;-68
2023/08/08 08:05:30;;;;;;;2.43;2.23;;;23.80;98.40;;;;;;5113793;28;20225;-69
2023/08/08 08:07:55;;;;;;;5.23;2.73;;;23.80;98.00;;;;;;5114004;28;20426;-69
2023/08/08 08:10:21;;;;;;;3.03;2.60;;;23.80;99.00;;;;;;5095738;28;20196;-69
2023/08/08 08:12:46;;;;;;;4.80;2.70;;;23.20;97.60;;;;;;5113907;28;20161;-66
2023/08/08 08:15:13;;;;;;;3.07;2.77;;;22.30;99.90;;;;;;5098583;28;20543;-67
2023/08/08 08:17:38;;;;;;;3.23;2.90;;;21.80;99.90;;;;;;5102404;28;20191;-67
2023/08/08 08:20:10;;;;;;;6.37;3.57;;;21.50;99.90;;;;;;5113838;28;20426;-67
2023/08/08 08:22:36;;;;;;;3.17;2.97;;;21.40;99.90;;;;;;5113863;28;20561;-66
2023/08/08 08:25:02;;;;;;;8.00;3.33;;;21.50;99.90;;;;;;5113319;28;20399;-67
2023/08/08 08:27:27;;;;;;;4.00;3.47;;;22.40;99.90;;;;;;5113657;28;20409;-68
2023/08/08 08:29:53;;;;;;;5.13;3.00;;;22.40;99.90;;;;;;5078338;28;20177;-66
2023/08/08 08:32:18;;;;;;;7.03;3.23;;;22.00;99.90;;;;;;5107320;28;20172;-67
2023/08/08 08:34:44;;;;;;;5.50;3.30;;;21.80;99.90;;;;;;5095303;28;20164;-67
2023/08/08 08:37:10;;;;;;;4.13;3.00;;;21.70;99.90;;;;;;5113148;28;20216;-68
2023/08/08 08:39:35;;;;;;;4.20;3.40;;;21.80;99.90;;;;;;5084356;28;20209;-68
2023/08/08 08:42:03;;;;;;;4.73;2.77;;;21.70;99.90;;;;;;5086689;28;20608;-67
2023/08/08 08:44:31;;;;;;;3.80;2.60;;;21.70;99.90;;;;;;5113197;28;20168;-67
2023/08/08 08:47:02;;;;;;;4.03;2.80;;;21.60;99.90;;;;;;5094569;28;20407;-67
2023/08/08 08:49:30;;;;;;;8.80;4.03;;;21.60;99.90;;;;;;5095415;28;21028;-67
2023/08/08 08:51:57;;;;;;;5.07;2.77;;;21.70;99.90;;;;;;5088243;28;20455;-68
2023/08/08 08:54:23;;;;;;;6.20;3.13;;;21.70;99.90;;;;;;5086470;28;20954;-67
2023/08/08 08:56:50;;;;;;;4.43;2.90;;;22.10;99.90;;;;;;5111354;28;20446;-67
2023/08/08 08:59:15;;;;;;;5.40;3.23;;;22.40;99.90;;;;;;5112922;28;20443;-67
2023/08/08 09:01:41;;;;;;;5.07;2.83;;;22.50;99.90;;;;;;5094506;28;20423;-68
2023/08/08 09:04:08;;;;;;;2.90;2.60;;;22.60;99.90;;;;;;5080213;28;20176;-68
2023/08/08 09:06:35;;;;;;;7.03;2.90;;;22.50;99.90;;;;;;5100453;28;20918;-68
2023/08/08 09:09:00;;;;;;;2.93;2.50;;;22.40;99.90;;;;;;5113178;28;20870;-68
2023/08/08 09:11:26;;;;;;;7.33;3.13;;;22.50;99.90;;;;;;5113028;28;20534;-68
2023/08/08 09:13:52;;;;;;;2.87;2.53;;;22.50;99.90;;;;;;5113021;28;20173;-67
2023/08/08 09:16:17;;;;;;;4.37;2.83;;;22.20;99.90;;;;;;5112566;28;20558;-67
2023/08/08 09:18:43;;;;;;;3.60;2.40;;;21.80;99.90;;;;;;5093990;28;20430;-67
2023/08/08 09:21:09;;;;;;;4.47;2.80;;;21.50;99.90;;;;;;5105700;28;20653;-67
2023/08/08 09:23:37;;;;;;;10.17;2.70;;;21.40;99.90;;;;;;5112890;28;20185;-68
2023/08/08 09:26:02;;;;;;;6.27;2.93;;;21.40;99.90;;;;;;5112701;28;20407;-67
2023/08/08 09:28:28;;;;;;;3.03;2.43;;;21.40;99.90;;;;;;5094630;28;20497;-67
2023/08/08 09:30:54;;;;;;;6.37;2.73;;;21.60;99.90;;;;;;5111070;28;20216;-66
2023/08/08 09:33:19;;;;;;;5.73;2.73;;;22.00;99.90;;;;;;5073676;28;20193;-68
2023/08/08 09:35:45;;;;;;;5.47;2.73;;;22.60;99.90;;;;;;5110137;28;20515;-68
2023/08/08 09:38:10;;;;;;;5.20;2.53;;;22.30;99.90;;;;;;5112437;28;20521;-68
2023/08/08 09:40:36;;;;;;;3.70;2.37;;;22.30;99.90;;;;;;5112305;28;20185;-68
2023/08/08 09:43:02;;;;;;;5.10;2.57;;;22.60;99.90;;;;;;5111604;28;20240;-68
2023/08/08 09:45:36;;;;;;;2.80;2.60;;;23.60;99.90;;;;;;5107310;28;20298;-67
2023/08/08 09:48:03;;;;;;;2.70;2.50;;;24.70;95.20;;;;;;5066667;28;20165;-68
2023/08/08 09:50:29;;;;;;;4.70;2.60;;;25.20;90.40;;;;;;5091796;28;20438;-68
2023/08/08 09:52:55;;;;;;;2.40;2.20;;;25.50;88.00;;;;;;5091954;28;20453;-68
2023/08/08 09:55:22;;;;;;;3.60;2.70;;;25.50;83.40;;;;;;5091550;28;20451;-68
2023/08/08 09:57:48;;;;;;;4.30;3.47;;;24.90;79.90;;;;;;5091805;28;20458;-68
2023/08/08 10:00:17;;;;;;;11.10;3.30;;;24.30;83.40;;;;;;5089259;28;20986;-67
2023/08/08 10:02:44;;;;;;;6.93;4.10;;;23.80;87.10;;;;;;5100087;28;20419;-67
2023/08/08 10:05:12;;;;;;;3.33;3.03;;;23.80;92.00;;;;;;5098989;28;20403;-67
2023/08/08 10:07:38;;;;;;;4.00;2.50;;;23.90;87.60;;;;;;5111955;28;20438;-67
2023/08/08 10:10:04;;;;;;;3.67;2.30;;;24.10;88.70;;;;;;5112140;28;20439;-67
2023/08/08 10:12:31;;;;;;;2.67;2.17;;;24.40;89.10;;;;;;5112047;28;20476;-68
2023/08/08 10:14:57;;;;;;;5.97;2.73;;;24.90;90.30;;;;;;5095453;28;20431;-67
2023/08/08 10:17:23;;;;;;;2.00;1.90;;;24.90;80.20;;;;;;5089333;28;20431;-67
2023/08/08 10:19:54;;;;;;;2.90;2.50;;;24.90;82.50;;;;;;5110515;28;20402;-67
2023/08/08 10:22:24;;;;;;;4.17;2.17;;;24.80;79.50;;;;;;5112106;28;20410;-67
2023/08/08 10:24:53;;;;;;;3.07;2.10;;;25.00;78.40;;;;;;5111937;28;20495;-68
2023/08/08 10:27:35;;;;;;;5.10;2.30;;;26.30;76.40;;;;;;5112337;28;20454;-68
2023/08/08 10:30:07;;;;;;;4.10;2.20;;;27.70;74.00;;;;;;5065150;28;20442;-68
2023/08/08 10:32:48;;;;;;;4.37;2.00;;;27.80;60.80;;;;;;5089986;28;20444;-67
2023/08/08 10:35:14;;;;;;;3.20;1.90;;;27.10;58.80;;;;;;5111692;28;20399;-68
2023/08/08 10:37:39;;;;;;;2.20;2.10;;;26.60;58.80;;;;;;5111942;28;20399;-67
2023/08/08 10:40:07;;;;;;;3.30;1.87;;;26.60;60.60;;;;;;5112097;28;20554;-68
2023/08/08 10:42:33;;;;;;;2.50;2.07;;;26.70;60.40;;;;;;5103016;28;20173;-68
2023/08/08 10:45:01;;;;;;;8.17;1.97;;;26.70;59.30;;;;;;5089522;28;20440;-68
2023/08/08 10:47:34;;;;;;;4.23;2.20;;;26.50;59.60;;;;;;5107304;28;20809;-68
2023/08/08 10:50:30;;;;;;;4.87;1.90;;;26.20;60.70;;;;;;5111689;28;20440;-68
2023/08/08 10:52:56;;;;;;;3.27;2.53;;;25.20;61.30;;;;;;5094591;28;20415;-68
2023/08/08 10:55:26;;;;;;;6.60;2.17;;;25.00;66.30;;;;;;5113516;28;20830;-68
2023/08/08 10:58:07;;;;;;;1.90;1.80;;;25.00;67.30;;;;;;5096386;28;20431;-67
2023/08/08 11:00:35;;;;;;;2.47;1.70;;;24.90;65.80;;;;;;5111238;28;20426;-68
2023/08/08 11:03:04;;;;;;;5.63;1.80;;;24.80;67.20;;;;;;5115285;28;20402;-68
2023/08/08 11:05:31;;;;;;;1.87;1.67;;;24.50;67.10;;;;;;5115059;28;20407;-67
2023/08/08 11:07:57;;;;;;;1.93;1.67;;;24.10;69.70;;;;;;5115116;28;20874;-67
2023/08/08 11:10:23;;;;;;;3.13;2.30;;;24.10;72.30;;;;;;5088709;28;20463;-67
2023/08/08 11:13:05;;;;;;;2.63;1.87;;;24.00;72.20;;;;;;5095177;28;20416;-67
2023/08/08 11:15:35;;;;;;;4.47;3.20;;;24.10;73.40;;;;;;5114901;28;20193;-67
2023/08/08 11:18:02;;;;;;;2.10;1.90;;;24.20;74.60;;;;;;5096814;28;20418;-68
2023/08/08 11:20:32;;;;;;;9.33;3.33;;;24.00;68.70;;;;;;5114866;28;20825;-67
2023/08/08 11:22:58;;;;;;;5.57;2.33;;;23.70;68.50;;;;;;5114838;28;20620;-68
2023/08/08 11:25:26;;;;;;;4.60;1.97;;;23.50;69.60;;;;;;5101790;28;20435;-67
2023/08/08 11:27:53;;;;;;;4.53;1.80;;;23.30;70.20;;;;;;5105486;28;20425;-68
2023/08/08 11:30:20;;;;;;;2.30;2.10;;;23.60;71.20;;;;;;5114723;28;20433;-68
2023/08/08 11:32:47;;;;;;;3.93;1.90;;;24.60;70.90;;;;;;5114730;28;20407;-67
2023/08/08 11:35:17;;;;;;;3.53;2.60;;;25.10;66.70;;;;;;5114423;28;20769;-68
2023/08/08 11:37:45;;;;;;;2.37;1.90;;;25.30;66.20;;;;;;5096093;28;20403;-67
2023/08/08 11:40:12;;;;;;;3.47;1.70;;;25.50;67.40;;;;;;5114441;28;20414;-68
2023/08/08 11:42:38;;;;;;;1.70;1.47;;;26.00;64.80;;;;;;5093863;28;20555;-67
2023/08/08 11:45:04;;;;;;;4.70;1.97;;;25.80;60.40;;;;;;5114208;28;20407;-67
2023/08/08 11:47:35;;;;;;;4.03;1.53;;;25.70;61.90;;;;;;5114425;28;20409;-67
2023/08/08 11:50:05;;;;;;;3.70;1.87;;;25.10;59.70;;;;;;5114402;28;20448;-68
2023/08/08 11:52:30;;;;;;;10.03;2.30;;;24.60;61.30;;;;;;5114245;28;20421;-68
2023/08/08 11:54:59;;;;;;;2.80;1.73;;;24.00;60.50;;;;;;5095939;28;20479;-67
2023/08/08 11:57:25;;;;;;;3.03;1.50;;;23.20;63.00;;;;;;5107248;28;20185;-67
2023/08/08 11:59:57;;;;;;;4.90;1.97;;;22.90;66.50;;;;;;5088132;28;20419;-67
2023/08/08 12:02:23;;;;;;;2.80;1.70;;;22.40;67.80;;;;;;5109167;28;20161;-67
2023/08/08 12:04:49;;;;;;;5.47;2.00;;;22.30;71.70;;;;;;5114091;28;20419;-68
2023/08/08 12:07:14;;;;;;;3.07;2.17;;;23.30;72.00;;;;;;5113130;28;20491;-67
2023/08/08 12:09:40;;;;;;;3.57;2.40;;;24.30;71.20;;;;;;5113757;28;20173;-68
2023/08/08 12:12:06;;;;;;;1.93;1.30;;;24.60;64.20;;;;;;5113882;28;20240;-67
2023/08/08 12:14:38;;;;;;;2.90;1.87;;;24.40;65.20;;;;;;5104557;28;20651;-67
2023/08/08 12:17:04;;;;;;;6.23;1.73;;;24.30;65.40;;;;;;5091207;28;20193;-67
2023/08/08 12:19:30;;;;;;;4.17;2.17;;;24.20;65.70;;;;;;5109630;28;20929;-67
2023/08/08 12:21:55;;;;;;;2.00;1.63;;;24.00;64.20;;;;;;5113391;28;20943;-67
2023/08/08 12:24:21;;;;;;;3.30;1.53;;;23.90;66.30;;;;;;5113644;28;20580;-67
2023/08/08 12:26:47;;;;;;;1.90;1.70;;;24.30;67.60;;;;;;5113391;28;20654;-68
2023/08/08 12:29:13;;;;;;;2.23;1.80;;;24.50;63.60;;;;;;5113643;28;20173;-68
2023/08/08 12:31:39;;;;;;;2.43;1.67;;;24.60;65.00;;;;;;5101983;28;20229;-68
2023/08/08 12:34:05;;;;;;;2.17;1.57;;;24.50;62.90;;;;;;5092369;28;20434;-68
2023/08/08 12:36:31;;;;;;;2.63;2.03;;;24.00;62.80;;;;;;5109231;28;20872;-68
2023/08/08 12:38:56;;;;;;;5.90;2.17;;;23.60;63.90;;;;;;5113500;28;20414;-67
2023/08/08 12:41:25;;;;;;;2.77;2.00;;;23.20;65.30;;;;;;5113366;28;20207;-67